Time;durP1;ratioP1;P1;durP2;ratioP2;P2;SDS_P1;SDS_P2;PMS_P1;PMS_P2;Temp;Humidity;BMP_temperature;BMP_pressure;BME280_temperature;BME280_humidity;BME280_pressure;Samples;Min_cycle;Max_cycle;Signal;HPM_P1;HPM_P2
2024/02/04 00:00:43;;;;;;;;;;;10.20;1.00;;;;;;5053783;28;20307;-80
2024/02/04 00:03:13;;;;;;;;;;;10.20;1.00;;;;;;5057660;28;19921;-80
2024/02/04 00:05:49;;;;;;;;;;;10.20;1.00;;;;;;5054003;28;19912;-80
2024/02/04 00:08:37;;;;;;;;;;;10.10;1.00;;;;;;5054634;28;20276;-79
2024/02/04 00:11:08;;;;;;;;;;;10.00;1.00;;;;;;5053274;28;19960;-79
2024/02/04 00:14:02;;;;;;;;;;;10.10;1.00;;;;;;5054509;28;19909;-79
2024/02/04 00:16:43;;;;;;;;;;;10.10;1.00;;;;;;5054356;28;19958;-79
2024/02/04 00:19:09;;;;;;;;;;;10.10;1.00;;;;;;5054824;28;19916;-79
2024/02/04 00:21:49;;;;;;;;;;;10.00;1.00;;;;;;5055626;28;19913;-78
2024/02/04 00:24:19;;;;;;;;;;;10.00;1.00;;;;;;5069757;28;19940;-78
2024/02/04 00:26:49;;;;;;;;;;;10.00;1.00;;;;;;5054229;28;20280;-78
2024/02/04 00:29:25;;;;;;;;;;;10.10;1.00;;;;;;5043924;28;19913;-78
2024/02/04 00:31:55;;;;;;;;;;;10.10;1.00;;;;;;5053596;28;19913;-78
2024/02/04 00:34:43;;;;;;;;;;;10.10;1.00;;;;;;5054322;28;19916;-78
2024/02/04 00:37:19;;;;;;;;;;;10.10;1.00;;;;;;5053947;28;19923;-78
2024/02/04 00:39:55;;;;;;;;;;;10.10;1.00;;;;;;5053881;28;20279;-78
2024/02/04 00:42:31;;;;;;;;;;;10.10;1.00;;;;;;5043834;28;19917;-78
2024/02/04 00:45:13;;;;;;;;;;;10.10;1.00;;;;;;5054437;28;20291;-78
2024/02/04 00:48:01;;;;;;;;;;;10.00;1.00;;;;;;5051569;28;19913;-78
2024/02/04 00:50:37;;;;;;;;;;;10.10;1.00;;;;;;5046457;28;19940;-78
2024/02/04 00:53:03;;;;;;;;;;;10.00;1.00;;;;;;5050763;28;19956;-78
2024/02/04 00:55:43;;;;;;;;;;;10.00;1.00;;;;;;5047536;28;19913;-78
2024/02/04 00:58:43;;;;;;;;;;;10.00;1.00;;;;;;5053621;28;20357;-78
2024/02/04 01:01:13;;;;;;;;;;;10.10;1.00;;;;;;5054008;28;19920;-79
2024/02/04 01:03:49;;;;;;;;;;;10.10;1.00;;;;;;5052766;28;20349;-79
2024/02/04 01:06:37;;;;;;;;;;;10.10;1.00;;;;;;5057958;28;19919;-78
2024/02/04 01:09:13;;;;;;;;;;;10.10;1.00;;;;;;5045788;28;20428;-79
2024/02/04 01:11:43;;;;;;;;;;;10.10;1.00;;;;;;5048825;28;19940;-79
2024/02/04 01:14:09;;;;;;;;;;;10.10;1.00;;;;;;5045085;28;20061;-78
2024/02/04 01:16:37;;;;;;;;;;;10.10;1.00;;;;;;5057915;28;19995;-80
2024/02/04 01:19:31;;;;;;;;;;;10.10;1.00;;;;;;5057801;28;19916;-80
2024/02/04 01:22:27;;;;;;;;;;;10.10;1.00;;;;;;5056257;28;19912;-80
2024/02/04 01:25:13;;;;;;;;;;;10.10;1.00;;;;;;5053372;28;19928;-80
2024/02/04 01:28:01;;;;;;;;;;;10.10;1.00;;;;;;5057753;28;19916;-80
2024/02/04 01:30:37;;;;;;;;;;;10.10;1.00;;;;;;5057544;28;19939;-80
2024/02/04 01:33:31;;;;;;;;;;;10.10;1.00;;;;;;5043152;28;19913;-80
2024/02/04 01:36:01;;;;;;;;;;;10.10;1.00;;;;;;5046297;28;20379;-79
2024/02/04 01:41:45;;;;;;;;;;;10.10;1.00;;;;;;5049342;28;20066;-79
2024/02/04 01:44:11;;;;;;;;;;;10.10;1.00;;;;;;5048148;28;19917;-79
2024/02/04 01:46:36;;;;;;;;;;;10.10;1.00;;;;;;5053434;28;19924;-81
2024/02/04 01:49:37;;;;;;;;;;;10.10;1.00;;;;;;5056970;28;19913;-80
2024/02/04 01:52:25;;;;;;;;;;;10.10;1.00;;;;;;5055711;28;19947;-80
2024/02/04 01:55:02;;;;;;;;;;;10.00;1.00;;;;;;5048052;28;20028;-80
2024/02/04 01:57:43;;;;;;;;;;;10.00;1.00;;;;;;5050106;28;19944;-80
2024/02/04 02:00:10;;;;;;;;;;;10.00;1.00;;;;;;5052250;28;19972;-79
2024/02/04 02:02:41;;;;;;;;;;;9.90;1.00;;;;;;5053273;28;19913;-78
2024/02/04 02:05:07;;;;;;;;;;;9.90;1.00;;;;;;5056609;28;19932;-78
2024/02/04 02:07:33;;;;;;;;;;;9.80;1.00;;;;;;5047656;28;19913;-79
2024/02/04 02:10:01;;;;;;;;;;;9.80;1.00;;;;;;5056203;28;19909;-79
2024/02/04 02:12:39;;;;;;;;;;;9.70;1.00;;;;;;5055867;28;20407;-79
2024/02/04 02:15:19;;;;;;;;;;;9.80;1.00;;;;;;5044395;28;19913;-79
2024/02/04 02:18:07;;;;;;;;;;;9.80;1.00;;;;;;5053814;28;19958;-79
2024/02/04 02:20:39;;;;;;;;;;;9.80;3.20;;;;;;5055338;28;19977;-79
2024/02/04 02:26:43;;;;;;;;;;;9.70;8.20;;;;;;5055929;28;19943;-79
2024/02/04 02:29:13;;;;;;;;;;;9.70;9.00;;;;;;5044388;28;20335;-79
2024/02/04 02:31:43;;;;;;;;;;;9.60;11.90;;;;;;5056702;28;19995;-80
2024/02/04 02:34:13;;;;;;;;;;;9.60;11.70;;;;;;5056521;28;19909;-80
2024/02/04 02:36:45;;;;;;;;;;;9.60;14.30;;;;;;5048090;28;19913;-80
2024/02/04 02:39:22;;;;;;;;;;;9.60;17.70;;;;;;5056246;28;19913;-80
2024/02/04 02:41:51;;;;;;;;;;;9.50;20.30;;;;;;5042831;28;19915;-80
2024/02/04 02:44:19;;;;;;;;;;;9.50;26.20;;;;;;5046683;28;19913;-80
2024/02/04 02:46:49;;;;;;;;;;;9.50;30.60;;;;;;5054564;28;20404;-79
2024/02/04 02:49:15;;;;;;;;;;;9.50;36.00;;;;;;5043527;28;20012;-79
2024/02/04 02:51:43;;;;;;;;;;;9.50;39.20;;;;;;5054679;28;19967;-79
2024/02/04 02:54:25;;;;;;;;;;;9.50;42.50;;;;;;5063011;28;19909;-79
2024/02/04 02:56:51;;;;;;;;;;;9.50;39.20;;;;;;5055485;28;19917;-79
2024/02/04 02:59:17;;;;;;;;;;;9.50;42.50;;;;;;5055501;28;19974;-79
2024/02/04 03:01:43;;;;;;;;;;;9.40;42.30;;;;;;5053704;28;19912;-80
2024/02/04 03:04:13;;;;;;;;;;;9.40;42.30;;;;;;5050462;28;19913;-79
2024/02/04 03:07:13;;;;;;;;;;;9.40;39.10;;;;;;5046519;28;19917;-79
2024/02/04 03:10:07;;;;;;;;;;;9.40;39.10;;;;;;5054908;28;19935;-80
2024/02/04 03:13:02;;;;;;;;;;;9.30;42.30;;;;;;5055737;28;19999;-80
2024/02/04 03:15:31;;;;;;;;;;;9.20;41.70;;;;;;5055777;28;19912;-80
2024/02/04 03:20:59;;;;;;;;;;;9.20;55.10;;;;;;5055145;28;20004;-79
2024/02/04 03:23:25;;;;;;;;;;;9.20;59.00;;;;;;5055268;28;20353;-79
2024/02/04 03:26:19;;;;;;;;;;;9.20;61.30;;;;;;5055640;28;19924;-80
2024/02/04 03:29:04;;;;;;;;;;;9.20;65.90;;;;;;5059977;28;20019;-79
2024/02/04 03:31:43;;;;;;;;;;;9.10;68.80;;;;;;5043555;28;19909;-79
2024/02/04 03:34:13;;;;;;;;;;;9.20;72.60;;;;;;5042376;28;19909;-80
2024/02/04 03:36:43;;;;;;;;;;;9.20;72.80;;;;;;5053835;28;19917;-79
2024/02/04 03:39:14;;;;;;;;;;;9.30;70.50;;;;;;5043614;28;19995;-79
2024/02/04 03:41:43;;;;;;;;;;;9.40;65.50;;;;;;5035722;28;20051;-79
2024/02/04 03:44:09;;;;;;;;;;;9.30;63.20;;;;;;5052878;28;19912;-79
2024/02/04 03:46:55;;;;;;;;;;;9.30;65.30;;;;;;5055015;28;19920;-79
2024/02/04 03:49:25;;;;;;;;;;;9.30;64.50;;;;;;5054828;28;19916;-79
2024/02/04 03:51:55;;;;;;;;;;;9.30;67.70;;;;;;5054849;28;19913;-79
2024/02/04 03:54:37;;;;;;;;;;;9.30;66.90;;;;;;5054774;28;19913;-79
2024/02/04 03:57:07;;;;;;;;;;;9.30;65.30;;;;;;5052511;28;19913;-79
2024/02/04 03:59:33;;;;;;;;;;;9.30;65.90;;;;;;5054113;28;19954;-79
2024/02/04 04:02:01;;;;;;;;;;;9.30;69.50;;;;;;5053795;28;19909;-79
2024/02/04 04:04:27;;;;;;;;;;;9.30;69.50;;;;;;5053430;28;20011;-79
2024/02/04 04:07:01;;;;;;;;;;;9.30;65.10;;;;;;5047814;28;19952;-79
2024/02/04 04:09:27;;;;;;;;;;;9.30;67.80;;;;;;5051741;28;19909;-80
2024/02/04 04:12:01;;;;;;;;;;;9.30;64.50;;;;;;5054346;28;19966;-79
2024/02/04 04:14:43;;;;;;;;;;;9.30;68.30;;;;;;5049714;28;19913;-80
2024/02/04 04:17:09;;;;;;;;;;;9.30;65.20;;;;;;5051200;28;19919;-79
2024/02/04 04:19:49;;;;;;;;;;;9.30;68.20;;;;;;5047922;28;19999;-80
2024/02/04 04:22:19;;;;;;;;;;;9.40;69.60;;;;;;5046182;28;20263;-80
2024/02/04 04:24:45;;;;;;;;;;;9.30;68.20;;;;;;5054303;28;19967;-80
2024/02/04 04:27:10;;;;;;;;;;;9.30;69.10;;;;;;5052910;28;19917;-80
2024/02/04 04:30:01;;;;;;;;;;;9.30;66.90;;;;;;5055997;28;19913;-80
2024/02/04 04:32:32;;;;;;;;;;;9.30;70.80;;;;;;5054406;28;19909;-79
2024/02/04 04:35:01;;;;;;;;;;;9.30;64.90;;;;;;5052856;28;19909;-79
2024/02/04 04:37:43;;;;;;;;;;;9.30;66.90;;;;;;5045949;28;19917;-79
2024/02/04 04:40:13;;;;;;;;;;;9.40;63.80;;;;;;5050777;28;20015;-79
2024/02/04 04:42:39;;;;;;;;;;;9.40;60.40;;;;;;5069535;28;19958;-80
2024/02/04 04:45:14;;;;;;;;;;;9.40;55.20;;;;;;5053858;28;19916;-80
2024/02/04 04:47:43;;;;;;;;;;;9.40;51.60;;;;;;5054245;28;19909;-80
2024/02/04 04:50:13;;;;;;;;;;;9.30;50.80;;;;;;5053922;28;19909;-79
2024/02/04 04:52:49;;;;;;;;;;;9.40;43.80;;;;;;5042124;28;19909;-79
2024/02/04 04:55:25;;;;;;;;;;;9.40;42.40;;;;;;5053852;28;19912;-80
2024/02/04 04:58:07;;;;;;;;;;;9.40;42.30;;;;;;5069336;28;20004;-79
2024/02/04 05:00:37;;;;;;;;;;;9.40;42.30;;;;;;5050289;28;19909;-79
2024/02/04 05:03:13;;;;;;;;;;;9.40;39.10;;;;;;5046934;28;19963;-80
2024/02/04 05:06:01;;;;;;;;;;;9.40;46.50;;;;;;5053958;28;19962;-80
2024/02/04 05:08:31;;;;;;;;;;;9.50;39.20;;;;;;5053684;28;19913;-80
2024/02/04 05:11:07;;;;;;;;;;;9.50;42.50;;;;;;5052688;28;20002;-79
2024/02/04 05:13:38;;;;;;;;;;;9.60;42.50;;;;;;5057944;28;19908;-80
2024/02/04 05:16:13;;;;;;;;;;;9.70;39.40;;;;;;5039518;28;19920;-80
2024/02/04 05:18:43;;;;;;;;;;;9.60;42.60;;;;;;5041234;28;19913;-79
2024/02/04 05:21:19;;;;;;;;;;;9.70;38.00;;;;;;5053649;28;19963;-79
2024/02/04 05:23:45;;;;;;;;;;;9.60;34.90;;;;;;5050377;28;19916;-79
2024/02/04 05:26:11;;;;;;;;;;;9.70;28.40;;;;;;5047364;28;19916;-79
2024/02/04 05:28:43;;;;;;;;;;;9.70;28.30;;;;;;5052385;28;19920;-79
2024/02/04 05:31:09;;;;;;;;;;;9.70;29.20;;;;;;5052612;28;20004;-79
2024/02/04 05:33:35;;;;;;;;;;;9.60;27.90;;;;;;5051575;28;19948;-79
2024/02/04 05:36:00;;;;;;;;;;;9.60;38.00;;;;;;5053607;28;19913;-80
2024/02/04 05:38:26;;;;;;;;;;;9.60;39.30;;;;;;5049677;28;19917;-79
2024/02/04 05:41:01;;;;;;;;;;;9.60;42.50;;;;;;5033702;28;19910;-80
2024/02/04 05:43:49;;;;;;;;;;;9.60;42.50;;;;;;5045019;28;19999;-79
2024/02/04 05:46:19;;;;;;;;;;;9.60;42.70;;;;;;5035238;28;19920;-80
2024/02/04 05:48:45;;;;;;;;;;;9.50;42.40;;;;;;5045798;28;19914;-80
2024/02/04 05:51:11;;;;;;;;;;;9.60;39.30;;;;;;5053062;28;19924;-80
2024/02/04 05:53:36;;;;;;;;;;;9.60;42.40;;;;;;5057084;28;19913;-80
2024/02/04 05:56:08;;;;;;;;;;;9.60;39.30;;;;;;5057268;28;19909;-80
2024/02/04 05:58:43;;;;;;;;;;;9.60;37.60;;;;;;5041673;28;19913;-80
2024/02/04 06:01:25;;;;;;;;;;;9.60;38.30;;;;;;5060367;28;19952;-80
2024/02/04 06:04:02;;;;;;;;;;;9.50;39.20;;;;;;5057035;28;19917;-79
2024/02/04 06:06:31;;;;;;;;;;;9.50;42.50;;;;;;5056698;28;19927;-79
2024/02/04 06:09:31;;;;;;;;;;;9.50;46.50;;;;;;5057030;28;19919;-79
2024/02/04 06:12:13;;;;;;;;;;;9.60;35.40;;;;;;5043455;28;19909;-79
2024/02/04 06:15:13;;;;;;;;;;;9.60;37.20;;;;;;5050967;28;19920;-79
2024/02/04 06:17:43;;;;;;;;;;;9.70;28.90;;;;;;5050487;28;19909;-79
2024/02/04 06:20:13;;;;;;;;;;;9.60;31.30;;;;;;5056824;28;19915;-80
2024/02/04 06:22:39;;;;;;;;;;;9.60;26.50;;;;;;5064819;28;19908;-80
2024/02/04 06:25:07;;;;;;;;;;;9.60;27.70;;;;;;5052235;28;19929;-79
2024/02/04 06:27:33;;;;;;;;;;;9.60;29.40;;;;;;5074508;28;19913;-79
2024/02/04 06:29:59;;;;;;;;;;;9.60;22.90;;;;;;5054524;28;20284;-82
2024/02/04 06:32:31;;;;;;;;;;;9.70;24.70;;;;;;5057869;28;19919;-79
2024/02/04 06:35:02;;;;;;;;;;;9.60;23.90;;;;;;5056333;28;19995;-77
2024/02/04 06:37:28;;;;;;;;;;;9.60;27.10;;;;;;5058842;28;20253;-85
2024/02/04 06:40:02;;;;;;;;;;;9.70;22.20;;;;;;5045635;28;20016;-79
2024/02/04 06:43:01;;;;;;;;;;;9.60;20.90;;;;;;5053026;28;19912;-81
2024/02/04 06:45:55;;;;;;;;;;;9.70;22.80;;;;;;5048174;28;19916;-79
2024/02/04 06:48:25;;;;;;;;;;;9.70;19.30;;;;;;5050676;28;19925;-79
2024/02/04 06:51:07;;;;;;;;;;;9.70;18.20;;;;;;5054790;28;20008;-80
2024/02/04 06:53:33;;;;;;;;;;;9.70;21.20;;;;;;5055777;28;19920;-79
2024/02/04 06:56:07;;;;;;;;;;;9.70;21.20;;;;;;5058743;28;19920;-80
2024/02/04 06:58:38;;;;;;;;;;;9.60;19.80;;;;;;5056020;28;19913;-77
2024/02/04 07:01:14;;;;;;;;;;;9.60;21.70;;;;;;5055327;28;19913;-78
2024/02/04 07:04:13;;;;;;;;;;;9.70;18.90;;;;;;5053240;28;19919;-83
2024/02/04 07:06:50;;;;;;;;;;;9.70;14.90;;;;;;5053894;28;20019;-81
2024/02/04 07:09:49;;;;;;;;;;;9.70;13.60;;;;;;5054454;28;19916;-80
2024/02/04 07:12:20;;;;;;;;;;;9.70;15.90;;;;;;5044882;28;19924;-80
2024/02/04 07:15:08;;;;;;;;;;;9.70;17.00;;;;;;5052367;28;19913;-79
2024/02/04 07:17:43;;;;;;;;;;;9.70;18.30;;;;;;5049848;28;19963;-79
2024/02/04 07:20:20;;;;;;;;;;;9.80;15.40;;;;;;5041026;28;19910;-79
2024/02/04 07:23:02;;;;;;;;;;;9.70;17.80;;;;;;5055777;28;19913;-79
2024/02/04 07:25:37;;;;;;;;;;;9.70;17.00;;;;;;5045800;28;19924;-78
2024/02/04 07:28:03;;;;;;;;;;;9.90;14.50;;;;;;5052214;28;19946;-79
2024/02/04 07:30:37;;;;;;;;;;;9.90;10.40;;;;;;5055066;28;19959;-78
2024/02/04 07:33:03;;;;;;;;;;;10.00;4.50;;;;;;5045499;28;19913;-78
2024/02/04 07:35:43;;;;;;;;;;;10.00;5.70;;;;;;5054557;28;19913;-79
2024/02/04 07:38:09;;;;;;;;;;;10.10;1.70;;;;;;5054578;28;20352;-78
2024/02/04 07:40:37;;;;;;;;;;;10.30;3.70;;;;;;5054035;28;19916;-79
2024/02/04 07:43:03;;;;;;;;;;;10.10;1.40;;;;;;5052747;28;19913;-79
2024/02/04 07:45:49;;;;;;;;;;;10.00;1.00;;;;;;5052290;28;19917;-79
2024/02/04 07:48:19;;;;;;;;;;;10.00;1.30;;;;;;5055167;28;19916;-79
2024/02/04 07:50:48;;;;;;;;;;;10.00;1.00;;;;;;5066517;28;19920;-79
2024/02/04 07:53:31;;;;;;;;;;;10.10;2.80;;;;;;5054733;28;19919;-80
2024/02/04 07:56:13;;;;;;;;;;;10.10;1.20;;;;;;5052913;28;19920;-80
2024/02/04 07:58:55;;;;;;;;;;;10.10;1.00;;;;;;5044224;28;19909;-80
2024/02/04 08:01:25;;;;;;;;;;;10.10;1.00;;;;;;5062314;28;19919;-80
2024/02/04 08:03:55;;;;;;;;;;;10.10;1.00;;;;;;5042926;28;19917;-79
2024/02/04 08:06:21;;;;;;;;;;;10.10;1.00;;;;;;5054115;28;19964;-79
2024/02/04 08:08:49;;;;;;;;;;;10.20;1.00;;;;;;5054296;28;20438;-79
2024/02/04 08:11:20;;;;;;;;;;;10.20;1.00;;;;;;5052934;28;19963;-79
2024/02/04 08:16:49;;;;;;;;;;;10.20;1.30;;;;;;5048373;28;20322;-79
2024/02/04 08:19:43;;;;;;;;;;;10.40;1.00;;;;;;5067959;28;19912;-79
2024/02/04 08:22:31;;;;;;;;;;;10.40;1.00;;;;;;5046502;28;19920;-79
2024/02/04 08:24:57;;;;;;;;;;;10.30;1.00;;;;;;5053659;28;19917;-80
2024/02/04 08:27:43;;;;;;;;;;;10.40;1.00;;;;;;5053957;28;19913;-79
2024/02/04 08:30:14;;;;;;;;;;;10.30;1.00;;;;;;5046244;28;19916;-78
2024/02/04 08:32:49;;;;;;;;;;;10.30;1.00;;;;;;5054058;28;19992;-78
2024/02/04 08:35:19;;;;;;;;;;;10.40;1.00;;;;;;5070013;28;19952;-79
2024/02/04 08:40:48;;;;;;;;;;;10.50;1.00;;;;;;5051466;28;19967;-78
2024/02/04 08:43:31;;;;;;;;;;;10.50;1.00;;;;;;5053857;28;19917;-78
2024/02/04 08:45:57;;;;;;;;;;;10.40;1.00;;;;;;5051794;28;19962;-79
2024/02/04 08:48:38;;;;;;;;;;;10.50;1.00;;;;;;5051027;28;19917;-79
2024/02/04 08:51:15;;;;;;;;;;;10.50;1.00;;;;;;5052638;28;19920;-78
2024/02/04 08:56:44;;;;;;;;;;;10.80;1.00;;;;;;5053706;28;19936;-78
2024/02/04 08:59:10;;;;;;;;;;;10.90;1.00;;;;;;5060764;28;20276;-83
2024/02/04 09:01:38;;;;;;;;;;;10.80;1.00;;;;;;5047650;28;19916;-79
2024/02/04 09:04:25;;;;;;;;;;;10.90;1.00;;;;;;5037871;28;19913;-83
2024/02/04 09:07:13;;;;;;;;;;;10.80;1.00;;;;;;5050885;28;20039;-85
2024/02/04 09:09:55;;;;;;;;;;;11.00;1.00;;;;;;5054475;28;19920;-79
2024/02/04 09:12:32;;;;;;;;;;;11.00;1.00;;;;;;5043703;28;19913;-81
2024/02/04 09:15:01;;;;;;;;;;;11.00;1.00;;;;;;5046730;28;19963;-81
2024/02/04 09:17:49;;;;;;;;;;;11.00;1.00;;;;;;5041594;28;19909;-81
2024/02/04 09:20:20;;;;;;;;;;;10.90;1.00;;;;;;5053626;28;19979;-80
2024/02/04 09:22:55;;;;;;;;;;;10.80;1.00;;;;;;5056306;28;19955;-81
2024/02/04 09:28:24;;;;;;;;;;;10.80;1.00;;;;;;5057441;28;19916;-79
2024/02/04 09:30:50;;;;;;;;;;;11.60;1.00;;;;;;5057237;28;19909;-80
2024/02/04 09:33:19;;;;;;;;;;;10.80;1.00;;;;;;5048430;28;19913;-80
2024/02/04 09:35:49;;;;;;;;;;;10.80;1.00;;;;;;5055807;28;20265;-79
2024/02/04 09:38:37;;;;;;;;;;;11.00;1.00;;;;;;5061300;28;19913;-80
2024/02/04 09:41:04;;;;;;;;;;;11.00;1.00;;;;;;5057057;28;19916;-79
2024/02/04 09:43:32;;;;;;;;;;;11.00;1.00;;;;;;5056984;28;19959;-79
2024/02/04 09:46:01;;;;;;;;;;;10.90;1.00;;;;;;5056797;28;19924;-79
2024/02/04 09:48:49;;;;;;;;;;;11.00;1.00;;;;;;5055645;28;19909;-80
2024/02/04 09:51:37;;;;;;;;;;;11.00;1.00;;;;;;5056153;28;19920;-79
2024/02/04 09:54:06;;;;;;;;;;;11.10;1.00;;;;;;5056104;28;19913;-79
2024/02/04 09:56:55;;;;;;;;;;;11.20;1.00;;;;;;5057040;28;19921;-79
2024/02/04 10:02:37;;;;;;;;;;;11.20;1.00;;;;;;5037019;28;19932;-78
2024/02/04 10:08:20;;;;;;;;;;;11.20;1.00;;;;;;5037022;28;19963;-78
2024/02/04 10:10:46;;;;;;;;;;;11.40;1.00;;;;;;5048185;28;19916;-79
2024/02/04 10:13:20;;;;;;;;;;;11.40;1.00;;;;;;5056722;28;19994;-77
2024/02/04 10:15:56;;;;;;;;;;;11.60;1.00;;;;;;5056792;28;19909;-79
2024/02/04 10:18:31;;;;;;;;;;;11.60;1.00;;;;;;5036710;28;19913;-79
2024/02/04 10:21:20;;;;;;;;;;;11.60;1.00;;;;;;5052158;28;19956;-79
2024/02/04 10:24:01;;;;;;;;;;;11.60;1.00;;;;;;5040813;28;19917;-78
2024/02/04 10:26:45;;;;;;;;;;;11.80;1.00;;;;;;5048754;28;19917;-79
2024/02/04 10:29:13;;;;;;;;;;;11.80;1.00;;;;;;5054955;28;19913;-78
2024/02/04 10:31:39;;;;;;;;;;;11.80;1.00;;;;;;5045952;28;19915;-76
2024/02/04 10:34:14;;;;;;;;;;;11.80;1.00;;;;;;5042058;28;19913;-76
2024/02/04 10:36:56;;;;;;;;;;;12.00;1.00;;;;;;5055324;28;19954;-77
2024/02/04 10:39:21;;;;;;;;;;;12.10;1.00;;;;;;5036609;28;19917;-79
2024/02/04 10:41:54;;;;;;;;;;;12.10;1.00;;;;;;5047817;28;20012;-78
2024/02/04 10:44:23;;;;;;;;;;;12.20;1.00;;;;;;5048201;28;19912;-78
2024/02/04 10:46:58;;;;;;;;;;;12.20;1.00;;;;;;5055336;28;19917;-79
2024/02/04 10:49:25;;;;;;;;;;;12.30;1.00;;;;;;5055632;28;19967;-78
2024/02/04 10:51:56;;;;;;;;;;;12.20;1.00;;;;;;5054282;28;19920;-77
2024/02/04 10:54:34;;;;;;;;;;;12.20;1.00;;;;;;5036531;28;19917;-78
2024/02/04 10:57:05;;;;;;;;;;;12.10;1.00;;;;;;5051578;28;19909;-78
2024/02/04 11:00:04;;;;;;;;;;;11.90;1.00;;;;;;5036349;28;20253;-82
2024/02/04 11:02:31;;;;;;;;;;;11.70;1.00;;;;;;5036008;28;20356;-75
2024/02/04 11:04:58;;;;;;;;;;;11.70;1.00;;;;;;5036085;28;20352;-78
2024/02/04 11:07:23;;;;;;;;;;;11.60;1.00;;;;;;5055226;28;19913;-78
2024/02/04 11:10:02;;;;;;;;;;;11.50;1.00;;;;;;5051701;28;19909;-77
2024/02/04 11:12:29;;;;;;;;;;;11.50;1.00;;;;;;5038364;28;19992;-77
2024/02/04 11:14:58;;;;;;;;;;;11.50;1.00;;;;;;5055734;28;20368;-78
2024/02/04 11:17:43;;;;;;;;;;;11.60;1.00;;;;;;5055772;28;20280;-80
2024/02/04 11:20:13;;;;;;;;;;;11.60;1.00;;;;;;5043201;28;19913;-77
2024/02/04 11:22:42;;;;;;;;;;;11.70;1.00;;;;;;5056338;28;19947;-79
2024/02/04 11:25:18;;;;;;;;;;;11.80;1.00;;;;;;5046371;28;19921;-79
2024/02/04 11:27:56;;;;;;;;;;;12.00;1.00;;;;;;5048608;28;19962;-79
2024/02/04 11:30:35;;;;;;;;;;;12.00;1.00;;;;;;5053520;28;19917;-79
2024/02/04 11:33:03;;;;;;;;;;;12.10;1.00;;;;;;5034262;28;19960;-79
2024/02/04 11:38:36;;;;;;;;;;;12.20;1.00;;;;;;5055018;28;19920;-80
2024/02/04 11:41:04;;;;;;;;;;;12.20;1.00;;;;;;5037487;28;19917;-79
2024/02/04 11:43:38;;;;;;;;;;;12.00;1.00;;;;;;5035307;28;19917;-80
2024/02/04 11:46:04;;;;;;;;;;;11.90;1.00;;;;;;5043222;28;19913;-80
2024/02/04 11:48:36;;;;;;;;;;;11.80;1.00;;;;;;5041147;28;19910;-79
2024/02/04 11:51:09;;;;;;;;;;;11.80;1.00;;;;;;5035989;28;19920;-76
2024/02/04 11:53:55;;;;;;;;;;;11.80;1.00;;;;;;5037598;28;19921;-77
2024/02/04 11:56:25;;;;;;;;;;;11.80;1.00;;;;;;5043026;28;19913;-77
2024/02/04 11:58:51;;;;;;;;;;;11.70;1.00;;;;;;5054131;28;19917;-77
2024/02/04 12:01:34;;;;;;;;;;;11.70;1.00;;;;;;5049124;28;19917;-77
2024/02/04 12:04:12;;;;;;;;;;;11.60;1.00;;;;;;5034979;28;19984;-77
2024/02/04 12:06:44;;;;;;;;;;;11.60;1.00;;;;;;5051263;28;19912;-78
2024/02/04 12:09:18;;;;;;;;;;;11.60;1.00;;;;;;5053533;28;19908;-78
2024/02/04 12:11:43;;;;;;;;;;;11.50;1.00;;;;;;5053325;28;20374;-78
2024/02/04 12:14:37;;;;;;;;;;;11.50;1.00;;;;;;5054395;28;19913;-78
2024/02/04 12:20:06;;;;;;;;;;;11.30;1.00;;;;;;5054240;28;19916;-77
2024/02/04 12:22:37;;;;;;;;;;;11.40;1.00;;;;;;5055167;28;19912;-79
2024/02/04 12:25:19;;;;;;;;;;;11.30;1.00;;;;;;5033324;28;20319;-79
2024/02/04 12:27:48;;;;;;;;;;;11.40;1.00;;;;;;5069451;28;20323;-80
2024/02/04 12:30:21;;;;;;;;;;;11.30;1.00;;;;;;5054430;28;19913;-78
2024/02/04 12:33:05;;;;;;;;;;;11.20;1.00;;;;;;5052940;28;19913;-77
2024/02/04 12:35:38;;;;;;;;;;;11.20;1.00;;;;;;5048716;28;19916;-78
2024/02/04 12:38:26;;;;;;;;;;;11.20;1.00;;;;;;5054471;28;20364;-78
2024/02/04 12:41:01;;;;;;;;;;;11.30;1.00;;;;;;5036738;28;20424;-78
2024/02/04 12:43:37;;;;;;;;;;;11.30;1.00;;;;;;5045923;28;20309;-79
2024/02/04 12:46:20;;;;;;;;;;;11.20;1.00;;;;;;5041765;28;20401;-79
2024/02/04 12:49:02;;;;;;;;;;;11.30;1.00;;;;;;5052860;28;19909;-79
2024/02/04 12:51:52;;;;;;;;;;;11.40;1.00;;;;;;5046892;28;20360;-79
2024/02/04 12:54:20;;;;;;;;;;;11.40;1.00;;;;;;5052830;28;20004;-79
2024/02/04 12:56:55;;;;;;;;;;;11.40;1.00;;;;;;5054085;28;19916;-79
2024/02/04 12:59:43;;;;;;;;;;;11.50;1.00;;;;;;5053176;28;19908;-79
2024/02/04 13:02:14;;;;;;;;;;;11.50;1.00;;;;;;5040015;28;19939;-79
2024/02/04 13:04:41;;;;;;;;;;;11.50;1.00;;;;;;5052435;28;19909;-78
2024/02/04 13:07:14;;;;;;;;;;;11.60;1.00;;;;;;5054112;28;19950;-78
2024/02/04 13:09:47;;;;;;;;;;;11.70;1.00;;;;;;5052651;28;19913;-78
2024/02/04 13:12:14;;;;;;;;;;;11.50;1.00;;;;;;5053710;28;19996;-78
2024/02/04 13:14:55;;;;;;;;;;;11.50;1.00;;;;;;5053946;28;19913;-78
2024/02/04 13:17:21;;;;;;;;;;;11.40;1.00;;;;;;5056686;28;19909;-79
2024/02/04 13:19:47;;;;;;;;;;;11.40;1.00;;;;;;5053765;28;20050;-79
2024/02/04 13:22:44;;;;;;;;;;;11.50;1.00;;;;;;5054414;28;19909;-79
2024/02/04 13:25:14;;;;;;;;;;;11.40;1.00;;;;;;5042554;28;19917;-79
2024/02/04 13:27:40;;;;;;;;;;;11.20;1.00;;;;;;5053328;28;20331;-80
2024/02/04 13:30:11;;;;;;;;;;;11.30;1.00;;;;;;5049550;28;19913;-80
2024/02/04 13:32:44;;;;;;;;;;;11.20;1.00;;;;;;5053189;28;19967;-80
2024/02/04 13:35:09;;;;;;;;;;;11.20;1.00;;;;;;5071064;28;20004;-79
2024/02/04 13:37:36;;;;;;;;;;;11.30;1.00;;;;;;5043430;28;20428;-84
2024/02/04 13:40:03;;;;;;;;;;;11.30;1.00;;;;;;5052606;28;19948;-83
2024/02/04 13:42:28;;;;;;;;;;;11.40;1.00;;;;;;5052101;28;19970;-87
2024/02/04 13:47:57;;;;;;;;;;;11.60;1.00;;;;;;5053492;28;19935;-79
2024/02/04 13:50:32;;;;;;;;;;;11.70;1.00;;;;;;5053229;28;19913;-79
2024/02/04 13:53:08;;;;;;;;;;;11.50;1.00;;;;;;5053706;28;19916;-82
2024/02/04 13:55:38;;;;;;;;;;;11.40;1.00;;;;;;5052125;28;20352;-79
2024/02/04 13:58:19;;;;;;;;;;;11.40;1.00;;;;;;5046610;28;19912;-80
2024/02/04 14:00:45;;;;;;;;;;;11.30;1.00;;;;;;5033429;28;19909;-78
2024/02/04 14:03:20;;;;;;;;;;;11.20;1.00;;;;;;5048765;28;19915;-79
2024/02/04 14:06:03;;;;;;;;;;;11.20;1.00;;;;;;5043424;28;19916;-78
2024/02/04 14:08:50;;;;;;;;;;;11.20;1.00;;;;;;5039355;28;19947;-76
2024/02/04 14:11:37;;;;;;;;;;;11.20;1.00;;;;;;5054736;28;19909;-77
2024/02/04 14:14:03;;;;;;;;;;;11.20;1.00;;;;;;5042388;28;19913;-77
2024/02/04 14:16:50;;;;;;;;;;;11.20;1.00;;;;;;5056843;28;19916;-78
2024/02/04 14:19:26;;;;;;;;;;;11.20;1.00;;;;;;5056734;28;20272;-78
2024/02/04 14:21:56;;;;;;;;;;;11.10;1.00;;;;;;5056803;28;19927;-76
2024/02/04 14:24:45;;;;;;;;;;;11.20;1.00;;;;;;5048145;28;19940;-79
2024/02/04 14:27:11;;;;;;;;;;;11.20;1.00;;;;;;5056117;28;19963;-79
2024/02/04 14:29:44;;;;;;;;;;;11.20;1.00;;;;;;5055793;28;19912;-78
2024/02/04 14:32:14;;;;;;;;;;;11.20;1.00;;;;;;5053782;28;20046;-79
2024/02/04 14:34:50;;;;;;;;;;;11.20;1.00;;;;;;5058288;28;19913;-80
2024/02/04 14:37:20;;;;;;;;;;;11.20;1.00;;;;;;5074594;28;19916;-78
2024/02/04 14:39:57;;;;;;;;;;;11.30;1.00;;;;;;5056207;28;20322;-79
2024/02/04 14:42:32;;;;;;;;;;;11.30;1.00;;;;;;5044082;28;19966;-80
2024/02/04 14:45:00;;;;;;;;;;;11.30;1.00;;;;;;5036292;28;19913;-78
2024/02/04 14:47:28;;;;;;;;;;;11.30;1.00;;;;;;5049279;28;20422;-80
2024/02/04 14:49:56;;;;;;;;;;;11.20;1.00;;;;;;5054138;28;20295;-81
2024/02/04 14:52:22;;;;;;;;;;;11.20;1.00;;;;;;5056361;28;19912;-79
2024/02/04 14:54:55;;;;;;;;;;;11.20;1.00;;;;;;5056366;28;20051;-80
2024/02/04 14:57:21;;;;;;;;;;;11.20;1.00;;;;;;5046969;28;19913;-80
2024/02/04 14:59:47;;;;;;;;;;;11.30;1.00;;;;;;5061170;28;19913;-81
2024/02/04 15:02:12;;;;;;;;;;;11.30;1.00;;;;;;5054391;28;19936;-81
2024/02/04 15:04:44;;;;;;;;;;;11.40;1.00;;;;;;5054553;28;19999;-79
2024/02/04 15:07:20;;;;;;;;;;;11.40;1.00;;;;;;5043805;28;19913;-80
2024/02/04 15:10:19;;;;;;;;;;;11.40;1.00;;;;;;5053257;28;19916;-80
2024/02/04 15:12:45;;;;;;;;;;;11.10;1.00;;;;;;5045780;28;20384;-80
2024/02/04 15:15:32;;;;;;;;;;;11.20;1.00;;;;;;5055682;28;19920;-81
2024/02/04 15:18:20;;;;;;;;;;;11.20;1.00;;;;;;5052937;28;19913;-79
2024/02/04 15:21:02;;;;;;;;;;;11.20;1.00;;;;;;5048547;28;19939;-80
2024/02/04 15:23:32;;;;;;;;;;;11.20;1.00;;;;;;5046849;28;20372;-79
2024/02/04 15:25:58;;;;;;;;;;;11.20;1.00;;;;;;5037388;28;20365;-80
2024/02/04 15:28:26;;;;;;;;;;;11.30;1.00;;;;;;5054318;28;19915;-80
2024/02/04 15:31:08;;;;;;;;;;;11.30;1.00;;;;;;5054722;28;19912;-78
2024/02/04 15:33:44;;;;;;;;;;;11.30;1.00;;;;;;5054806;28;19913;-78
2024/02/04 15:36:09;;;;;;;;;;;11.20;1.00;;;;;;5045905;28;19998;-79
2024/02/04 15:38:38;;;;;;;;;;;11.20;1.00;;;;;;5060785;28;19959;-78
2024/02/04 15:41:27;;;;;;;;;;;11.30;1.00;;;;;;5044511;28;19913;-78
2024/02/04 15:43:52;;;;;;;;;;;11.30;1.00;;;;;;5055169;28;20287;-79
2024/02/04 15:49:22;;;;;;;;;;;11.30;1.00;;;;;;5043640;28;19919;-78
2024/02/04 15:51:50;;;;;;;;;;;11.30;1.00;;;;;;5054911;28;19909;-78
2024/02/04 15:54:15;;;;;;;;;;;11.20;1.00;;;;;;5046628;28;19996;-78